Buoy 56564

sailwx.info

Track history (hours):
 
Tides and Currents Weather Stations Pressure Air Temp Water Temp Dewpoint Dewpoint Depression Visibility Wind Speed Wind Dir Waves Ship Positions

Drifting buoy 56564

Last reported at 2017-Nov-22 18:30 UTC. Time now 2017-Nov-22 22:20 UTC.
Position S 29°40' E 048°44'.

Barometer 1022.2 mb
Water temperature 35.9 ° C

Date/timePositionNaut miles runAvg speedWind from/ knotsBaromVisibWave heightAir tempDewpointWater temp
2017-Nov-22 18:30S 29°40' E 048°44'0 0.0 1022.2 35.9
2017-Nov-22 17:30S 29°40' E 048°44'1 1.3 1022.1 35.9
2017-Nov-22 16:30S 29°38' E 048°43'0 0.0 1021.4 35.9
2017-Nov-22 15:30S 29°38' E 048°43'1 1.2 1021.0 35.9
2017-Nov-22 14:30S 29°38' E 048°44'1 0.7 1020.7 35.9
2017-Nov-22 12:30S 29°37' E 048°45'2 0.3 1020.8 35.9
2017-Nov-22 05:30S 29°35' E 048°45'1 1.3 1022.5 35.9
2017-Nov-22 04:30S 29°34' E 048°44'1 0.5 1022.8 35.9
2017-Nov-22 03:30S 29°34' E 048°44'1 0.7 1022.4 35.9
2017-Nov-22 01:30S 29°32' E 048°44'1 0.8 1021.4 35.9
2017-Nov-22 00:30S 29°32' E 048°45'1 1.3 1021.5 35.9
2017-Nov-21 23:30S 29°31' E 048°46'0 0.0 1021.9 35.9
2017-Nov-21 22:30S 29°31' E 048°46'1 0.2 1021.8 35.9
2017-Nov-21 18:30S 29°30' E 048°46'0 0.0 1023.1 35.9
2017-Nov-21 17:30S 29°30' E 048°46'1 0.6 1022.7 35.9
2017-Nov-21 16:30S 29°29' E 048°46'1 0.5 1022.6 35.9
2017-Nov-21 15:30S 29°29' E 048°46'1 0.5 1022.2 35.9
2017-Nov-21 14:30S 29°29' E 048°46'1 0.8 1021.8 35.9
2017-Nov-21 13:30S 29°29' E 048°46'0 0.0 1021.7 35.9
2017-Nov-21 12:30S 29°29' E 048°46'1 0.5 1021.7 35.9
2017-Nov-21 11:30S 29°29' E 048°47'1 0.2 1021.8 35.9
2017-Nov-21 06:30S 29°28' E 048°46'0 0.0 1023.2 35.9
2017-Nov-21 05:30S 29°28' E 048°46'1 0.8 1023.6 35.9
2017-Nov-21 04:30S 29°28' E 048°45'1 0.6 1023.6 35.9
2017-Nov-21 03:30S 29°27' E 048°45'1 0.4 1023.3 35.9
2017-Nov-21 01:30S 29°26' E 048°44'0 0.0 1022.5 35.9
2017-Nov-21 00:30S 29°26' E 048°44'1 0.6 1022.7 35.9
2017-Nov-20 22:30S 29°25' E 048°44'1 0.4 1022.6 35.9
2017-Nov-20 19:30S 29°24' E 048°44'0 0.0 1023.9 35.9
2017-Nov-20 18:30S 29°24' E 048°44'1 0.8 1023.9 35.9
2017-Nov-20 17:30S 29°23' E 048°45'1 0.5 1023.8 35.9
2017-Nov-20 16:30S 29°23' E 048°44'0 0.0 1022.9 35.9
2017-Nov-20 15:30S 29°23' E 048°44'1 0.8 1022.2 35.9
2017-Nov-20 14:30S 29°24' E 048°45'0 0.0 1021.6 35.9
2017-Nov-20 13:30S 29°24' E 048°45'0 0.0 1021.2 35.9
2017-Nov-20 12:30S 29°24' E 048°45'1 0.5 1021.4 35.9
2017-Nov-20 11:30S 29°24' E 048°44'0 0.0 1021.8 35.9
2017-Nov-20 10:30S 29°24' E 048°44'0 0.0 1022.1 35.9
2017-Nov-20 05:30S 29°24' E 048°44'1 0.3 1023.4 35.9
2017-Nov-20 03:30S 29°24' E 048°44'1 0.5 1022.7 21.3
2017-Nov-20 02:30S 29°24' E 048°43'1 1.2 1022.2 21.2
2017-Nov-20 01:30S 29°25' E 048°44'1 1.0 1021.7 21.2
2017-Nov-20 00:30S 29°25' E 048°43'0 0.0 1021.6 21.2
2017-Nov-19 22:30S 29°25' E 048°43'2 0.4 1021.5 21.3
2017-Nov-19 18:30S 29°25' E 048°41'1 0.6 1022.1 21.4
2017-Nov-19 17:30S 29°25' E 048°41'1 0.8 1021.6 21.5
2017-Nov-19 16:30S 29°26' E 048°41'1 1.2 1021.2 21.5
2017-Nov-19 15:30S 29°25' E 048°42'1 0.6 1020.6 21.5
2017-Nov-19 14:30S 29°26' E 048°42'1 1.0 1020.1 21.6
2017-Nov-19 13:30S 29°26' E 048°41'4 2.0 1019.8 21.6
2017-Nov-19 11:30S 29°28' E 048°37'1 0.2 1019.5 21.6
2017-Nov-19 06:30S 29°29' E 048°37'1 1.2 1020.0 21.3
2017-Nov-19 05:30S 29°28' E 048°35'1 1.0 1019.9 21.2
2017-Nov-19 04:30S 29°28' E 048°34'0 0.0 1019.7 21.2
2017-Nov-19 03:30S 29°28' E 048°34'0 0.0 1019.0 21.2
2017-Nov-19 02:30S 29°28' E 048°34'0 0.0 1018.4 21.2
2017-Nov-19 01:30S 29°28' E 048°34'0 0.0 1017.8 21.2
2017-Nov-19 00:30S 29°28' E 048°34'1 0.5 1017.6 21.2
2017-Nov-18 22:30S 29°28' E 048°33'2 0.4 1017.5 21.2
2017-Nov-18 18:30S 29°29' E 048°31'1 1.0 1017.8 21.2
2017-Nov-18 17:30S 29°29' E 048°30'1 0.8 1017.2 21.3
2017-Nov-18 16:30S 29°29' E 048°29'2 1.7 1016.7 21.3
2017-Nov-18 15:30S 29°30' E 048°28'1 0.6 1016.0 21.3
2017-Nov-18 14:30S 29°29' E 048°28'1 0.6 1015.3 21.4
2017-Nov-18 13:30S 29°30' E 048°28'1 1.2 1015.2 21.4
2017-Nov-18 12:30S 29°31' E 048°26'0 0.0 1015.1 21.4
2017-Nov-18 11:30S 29°31' E 048°26'5 0.9 1015.0 21.5
2017-Nov-18 06:30S 29°32' E 048°22'1 0.5 1015.2 21.2
2017-Nov-18 05:30S 29°32' E 048°21'1 0.5 1015.0 21.1
2017-Nov-18 04:30S 29°32' E 048°20'1 0.5 1014.6 21.1
2017-Nov-18 03:30S 29°32' E 048°20'1 1.2 1014.0 21.1
2017-Nov-18 02:30S 29°32' E 048°19'1 0.8 1013.6 21.1
2017-Nov-18 01:30S 29°32' E 048°18'1 0.4 1013.0 21.1
2017-Nov-17 23:30S 29°33' E 048°17'0 0.0 1012.9 21.1
2017-Nov-17 22:30S 29°33' E 048°17'2 0.6 1013.1 21.1
2017-Nov-17 18:30S 29°35' E 048°16'0 0.0 1013.0 21.1
2017-Nov-17 17:30S 29°35' E 048°16'1 0.5 1012.6 21.1
2017-Nov-17 16:30S 29°35' E 048°15'1 1.3 1011.7 21.1
2017-Nov-17 15:30S 29°34' E 048°14'1 1.2 1011.3 21.1
2017-Nov-17 14:30S 29°34' E 048°13'1 0.6 1011.3 21.1
2017-Nov-17 13:30S 29°34' E 048°13'1 0.4 1011.2 21.1
2017-Nov-17 11:30S 29°33' E 048°13'3 0.6 1011.7 21.1
2017-Nov-17 06:30S 29°31' E 048°10'2 1.6 1013.0 21.1
2017-Nov-17 05:30S 29°30' E 048°08'1 0.5 1012.7 21.1
2017-Nov-17 04:30S 29°30' E 048°09'2 2.0 1012.5 21.1
2017-Nov-17 03:30S 29°29' E 048°07'0 0.0 1012.7 21.1
2017-Nov-17 02:30S 29°29' E 048°07'1 1.3 1012.5 21.1
2017-Nov-17 01:30S 29°28' E 048°07'2 1.6 1012.3 21.1
2017-Nov-17 00:30S 29°26' E 048°05'0 0.0 1012.7 21.1
2017-Nov-16 23:30S 29°26' E 048°05'2 0.5 1013.3 21.1
2017-Nov-16 18:30S 29°24' E 048°05'0 0.0 1014.9 21.1
2017-Nov-16 17:30S 29°24' E 048°05'1 0.8 1014.8 21.1
2017-Nov-16 16:30S 29°23' E 048°04'1 0.5 1015.0 21.1
2017-Nov-16 15:30S 29°23' E 048°04'1 0.5 1014.7 21.2
2017-Nov-16 14:30S 29°23' E 048°03'0 0.0 1014.1 21.2
2017-Nov-16 13:30S 29°23' E 048°03'1 0.5 1013.4 21.2
2017-Nov-16 12:30S 29°23' E 048°02'4 0.6 1013.5 21.2
2017-Nov-16 06:30S 29°20' E 048°00'2 1.6 1015.3 20.9
2017-Nov-16 05:30S 29°19' E 047°59'1 1.2 1015.9 20.9
2017-Nov-16 04:30S 29°19' E 047°58'1 0.3 1015.3 20.9
2017-Nov-16 02:30S 29°19' E 047°58'1 1.3 1014.7 20.8
2017-Nov-16 01:30S 29°17' E 047°58'1 0.7 1014.4 20.9
2017-Nov-15 23:30S 29°16' E 047°57'1 0.6 1014.6 20.9
2017-Nov-15 21:30S 29°15' E 047°57'0 0.0 1015.8 20.9
2017-Nov-15 18:30S 29°15' E 047°57'0 0.0 1016.4 21.0
2017-Nov-15 17:30S 29°15' E 047°57'1 0.6 1016.1 21.0
2017-Nov-15 16:30S 29°14' E 047°57'0 0.0 1015.7 21.0
2017-Nov-15 15:30S 29°14' E 047°57'0 0.0 1015.2 21.0
2017-Nov-15 14:30S 29°14' E 047°57'1 0.6 1014.9 21.1
2017-Nov-15 13:30S 29°14' E 047°57'2 2.1 1014.8 21.1
2017-Nov-15 12:30S 29°12' E 047°58'0 0.0 1014.9 21.1
2017-Nov-15 11:30S 29°12' E 047°58'0 0.0 1015.5 21.1
2017-Nov-15 10:30S 29°12' E 047°58'1 0.1 1015.9 21.0
2017-Nov-15 05:30S 29°11' E 047°58'1 1.3 1017.6 20.8
2017-Nov-15 04:30S 29°10' E 047°59'1 0.6 1017.6 21.0
2017-Nov-15 03:30S 29°10' E 047°59'1 0.8 1017.4 21.0
2017-Nov-15 02:30S 29°09' E 047°59'0 0.0 1017.2 21.2
2017-Nov-15 01:30S 29°09' E 047°59'1 0.8 1016.7 21.3
2017-Nov-15 00:30S 29°08' E 048°00'0 0.0 1016.5 21.5
2017-Nov-14 23:30S 29°08' E 048°00'3 0.5 1016.3 21.6
2017-Nov-14 17:30S 29°05' E 048°01'1 0.7 1017.9 22.1
2017-Nov-14 15:30S 29°04' E 048°02'1 0.7 1017.3 22.2
2017-Nov-14 13:30S 29°03' E 048°01'2 1.7 1016.5 22.3
2017-Nov-14 12:30S 29°02' E 048°03'1 0.3 1016.4 22.3
2017-Nov-14 10:30S 29°02' E 048°03'4 1.0 1017.3 22.3
2017-Nov-14 06:30S 28°59' E 048°06'0 0.0 1019.2 22.2
2017-Nov-14 05:30S 28°59' E 048°06'1 0.6 1019.1 22.1
2017-Nov-14 04:30S 28°58' E 048°06'1 0.8 1019.1 22.1
2017-Nov-14 03:30S 28°58' E 048°07'1 0.5 1018.8 22.1
2017-Nov-14 02:30S 28°58' E 048°07'1 0.6 1018.3 22.1
2017-Nov-14 01:30S 28°57' E 048°07'2 1.1 1017.6 22.2
2017-Nov-13 23:30S 28°56' E 048°10'2 2.0 1017.9 22.2
2017-Nov-13 22:30S 28°55' E 048°11'0 0.0 1018.3 22.2
2017-Nov-13 18:30S 28°55' E 048°11'0 0.0 1019.9 22.4
2017-Nov-13 17:30S 28°55' E 048°11'1 0.5 1019.7 22.4
2017-Nov-13 16:30S 28°55' E 048°12'1 0.6 1019.6 22.4
2017-Nov-13 15:30S 28°55' E 048°12'1 1.2 1019.3 22.4
2017-Nov-13 14:30S 28°54' E 048°11'1 1.2 1018.8 22.4
2017-Nov-13 13:30S 28°53' E 048°12'1 0.5 1018.5 22.5
2017-Nov-13 12:30S 28°53' E 048°13'0 0.0 1018.4 22.5
2017-Nov-13 10:30S 28°53' E 048°13'5 1.1 1018.7 22.4
2017-Nov-13 05:30S 28°49' E 048°16'1 1.2 1019.6 22.3
2017-Nov-13 04:30S 28°48' E 048°17'0 0.0 1019.6 22.3
2017-Nov-13 03:30S 28°48' E 048°17'1 0.5 1019.2 22.3
2017-Nov-13 02:30S 28°48' E 048°17'1 0.5 1018.7 22.4
2017-Nov-13 01:30S 28°48' E 048°18'1 0.6 1018.1 22.4
2017-Nov-13 00:30S 28°47' E 048°18'1 0.8 1017.9 22.4
2017-Nov-12 23:30S 28°47' E 048°19'0 0.0 1018.0 22.4
2017-Nov-12 22:30S 28°47' E 048°19'3 0.7 1018.1 22.4
2017-Nov-12 18:30S 28°45' E 048°21'   1019.7 22.5
Track history (hours):
 
Tides and Currents Weather Stations Pressure Air Temp Water Temp Dewpoint Dewpoint Depression Visibility Wind Speed Wind Dir Waves Ship Positions

Drifting buoy 56564

Last reported at 2017-Nov-22 18:30 UTC. Time now 2017-Nov-22 22:20 UTC.
Position S 29°40' E 048°44'.

Barometer 1022.2 mb
Water temperature 35.9 ° C

Date/timePositionNaut miles runAvg speedWind from/ knotsBaromVisibWave heightAir tempDewpointWater temp
2017-Nov-22 18:30S 29°40' E 048°44'0 0.0 1022.2 35.9
2017-Nov-22 17:30S 29°40' E 048°44'1 1.3 1022.1 35.9
2017-Nov-22 16:30S 29°38' E 048°43'0 0.0 1021.4 35.9
2017-Nov-22 15:30S 29°38' E 048°43'1 1.2 1021.0 35.9
2017-Nov-22 14:30S 29°38' E 048°44'1 0.7 1020.7 35.9
2017-Nov-22 12:30S 29°37' E 048°45'2 0.3 1020.8 35.9
2017-Nov-22 05:30S 29°35' E 048°45'1 1.3 1022.5 35.9
2017-Nov-22 04:30S 29°34' E 048°44'1 0.5 1022.8 35.9
2017-Nov-22 03:30S 29°34' E 048°44'1 0.7 1022.4 35.9
2017-Nov-22 01:30S 29°32' E 048°44'1 0.8 1021.4 35.9
2017-Nov-22 00:30S 29°32' E 048°45'1 1.3 1021.5 35.9
2017-Nov-21 23:30S 29°31' E 048°46'0 0.0 1021.9 35.9
2017-Nov-21 22:30S 29°31' E 048°46'1 0.2 1021.8 35.9
2017-Nov-21 18:30S 29°30' E 048°46'0 0.0 1023.1 35.9
2017-Nov-21 17:30S 29°30' E 048°46'1 0.6 1022.7 35.9
2017-Nov-21 16:30S 29°29' E 048°46'1 0.5 1022.6 35.9
2017-Nov-21 15:30S 29°29' E 048°46'1 0.5 1022.2 35.9
2017-Nov-21 14:30S 29°29' E 048°46'1 0.8 1021.8 35.9
2017-Nov-21 13:30S 29°29' E 048°46'0 0.0 1021.7 35.9
2017-Nov-21 12:30S 29°29' E 048°46'1 0.5 1021.7 35.9
2017-Nov-21 11:30S 29°29' E 048°47'1 0.2 1021.8 35.9
2017-Nov-21 06:30S 29°28' E 048°46'0 0.0 1023.2 35.9
2017-Nov-21 05:30S 29°28' E 048°46'1 0.8 1023.6 35.9
2017-Nov-21 04:30S 29°28' E 048°45'1 0.6 1023.6 35.9
2017-Nov-21 03:30S 29°27' E 048°45'1 0.4 1023.3 35.9
2017-Nov-21 01:30S 29°26' E 048°44'0 0.0 1022.5 35.9
2017-Nov-21 00:30S 29°26' E 048°44'1 0.6 1022.7 35.9
2017-Nov-20 22:30S 29°25' E 048°44'1 0.4 1022.6 35.9
2017-Nov-20 19:30S 29°24' E 048°44'0 0.0 1023.9 35.9
2017-Nov-20 18:30S 29°24' E 048°44'1 0.8 1023.9 35.9
2017-Nov-20 17:30S 29°23' E 048°45'1 0.5 1023.8 35.9
2017-Nov-20 16:30S 29°23' E 048°44'0 0.0 1022.9 35.9
2017-Nov-20 15:30S 29°23' E 048°44'1 0.8 1022.2 35.9
2017-Nov-20 14:30S 29°24' E 048°45'0 0.0 1021.6 35.9
2017-Nov-20 13:30S 29°24' E 048°45'0 0.0 1021.2 35.9
2017-Nov-20 12:30S 29°24' E 048°45'1 0.5 1021.4 35.9
2017-Nov-20 11:30S 29°24' E 048°44'0 0.0 1021.8 35.9
2017-Nov-20 10:30S 29°24' E 048°44'0 0.0 1022.1 35.9
2017-Nov-20 05:30S 29°24' E 048°44'1 0.3 1023.4 35.9
2017-Nov-20 03:30S 29°24' E 048°44'1 0.5 1022.7 21.3
2017-Nov-20 02:30S 29°24' E 048°43'1 1.2 1022.2 21.2
2017-Nov-20 01:30S 29°25' E 048°44'1 1.0 1021.7 21.2
2017-Nov-20 00:30S 29°25' E 048°43'0 0.0 1021.6 21.2
2017-Nov-19 22:30S 29°25' E 048°43'2 0.4 1021.5 21.3
2017-Nov-19 18:30S 29°25' E 048°41'1 0.6 1022.1 21.4
2017-Nov-19 17:30S 29°25' E 048°41'1 0.8 1021.6 21.5
2017-Nov-19 16:30S 29°26' E 048°41'1 1.2 1021.2 21.5
2017-Nov-19 15:30S 29°25' E 048°42'1 0.6 1020.6 21.5
2017-Nov-19 14:30S 29°26' E 048°42'1 1.0 1020.1 21.6
2017-Nov-19 13:30S 29°26' E 048°41'4 2.0 1019.8 21.6
2017-Nov-19 11:30S 29°28' E 048°37'1 0.2 1019.5 21.6
2017-Nov-19 06:30S 29°29' E 048°37'1 1.2 1020.0 21.3
2017-Nov-19 05:30S 29°28' E 048°35'1 1.0 1019.9 21.2
2017-Nov-19 04:30S 29°28' E 048°34'0 0.0 1019.7 21.2
2017-Nov-19 03:30S 29°28' E 048°34'0 0.0 1019.0 21.2
2017-Nov-19 02:30S 29°28' E 048°34'0 0.0 1018.4 21.2
2017-Nov-19 01:30S 29°28' E 048°34'0 0.0 1017.8 21.2
2017-Nov-19 00:30S 29°28' E 048°34'1 0.5 1017.6 21.2
2017-Nov-18 22:30S 29°28' E 048°33'2 0.4 1017.5 21.2
2017-Nov-18 18:30S 29°29' E 048°31'1 1.0 1017.8 21.2
2017-Nov-18 17:30S 29°29' E 048°30'1 0.8 1017.2 21.3
2017-Nov-18 16:30S 29°29' E 048°29'2 1.7 1016.7 21.3
2017-Nov-18 15:30S 29°30' E 048°28'1 0.6 1016.0 21.3
2017-Nov-18 14:30S 29°29' E 048°28'1 0.6 1015.3 21.4
2017-Nov-18 13:30S 29°30' E 048°28'1 1.2 1015.2 21.4
2017-Nov-18 12:30S 29°31' E 048°26'0 0.0 1015.1 21.4
2017-Nov-18 11:30S 29°31' E 048°26'5 0.9 1015.0 21.5
2017-Nov-18 06:30S 29°32' E 048°22'1 0.5 1015.2 21.2
2017-Nov-18 05:30S 29°32' E 048°21'1 0.5 1015.0 21.1
2017-Nov-18 04:30S 29°32' E 048°20'1 0.5 1014.6 21.1
2017-Nov-18 03:30S 29°32' E 048°20'1 1.2 1014.0 21.1
2017-Nov-18 02:30S 29°32' E 048°19'1 0.8 1013.6 21.1
2017-Nov-18 01:30S 29°32' E 048°18'1 0.4 1013.0 21.1
2017-Nov-17 23:30S 29°33' E 048°17'0 0.0 1012.9 21.1
2017-Nov-17 22:30S 29°33' E 048°17'2 0.6 1013.1 21.1
2017-Nov-17 18:30S 29°35' E 048°16'0 0.0 1013.0 21.1
2017-Nov-17 17:30S 29°35' E 048°16'1 0.5 1012.6 21.1
2017-Nov-17 16:30S 29°35' E 048°15'1 1.3 1011.7 21.1
2017-Nov-17 15:30S 29°34' E 048°14'1 1.2 1011.3 21.1
2017-Nov-17 14:30S 29°34' E 048°13'1 0.6 1011.3 21.1
2017-Nov-17 13:30S 29°34' E 048°13'1 0.4 1011.2 21.1
2017-Nov-17 11:30S 29°33' E 048°13'3 0.6 1011.7 21.1
2017-Nov-17 06:30S 29°31' E 048°10'2 1.6 1013.0 21.1
2017-Nov-17 05:30S 29°30' E 048°08'1 0.5 1012.7 21.1
2017-Nov-17 04:30S 29°30' E 048°09'2 2.0 1012.5 21.1
2017-Nov-17 03:30S 29°29' E 048°07'0 0.0 1012.7 21.1
2017-Nov-17 02:30S 29°29' E 048°07'1 1.3 1012.5 21.1
2017-Nov-17 01:30S 29°28' E 048°07'2 1.6 1012.3 21.1
2017-Nov-17 00:30S 29°26' E 048°05'0 0.0 1012.7 21.1
2017-Nov-16 23:30S 29°26' E 048°05'2 0.5 1013.3 21.1
2017-Nov-16 18:30S 29°24' E 048°05'0 0.0 1014.9 21.1
2017-Nov-16 17:30S 29°24' E 048°05'1 0.8 1014.8 21.1
2017-Nov-16 16:30S 29°23' E 048°04'1 0.5 1015.0 21.1
2017-Nov-16 15:30S 29°23' E 048°04'1 0.5 1014.7 21.2
2017-Nov-16 14:30S 29°23' E 048°03'0 0.0 1014.1 21.2
2017-Nov-16 13:30S 29°23' E 048°03'1 0.5 1013.4 21.2
2017-Nov-16 12:30S 29°23' E 048°02'4 0.6 1013.5 21.2
2017-Nov-16 06:30S 29°20' E 048°00'2 1.6 1015.3 20.9
2017-Nov-16 05:30S 29°19' E 047°59'1 1.2 1015.9 20.9
2017-Nov-16 04:30S 29°19' E 047°58'1 0.3 1015.3 20.9
2017-Nov-16 02:30S 29°19' E 047°58'1 1.3 1014.7 20.8
2017-Nov-16 01:30S 29°17' E 047°58'1 0.7 1014.4 20.9
2017-Nov-15 23:30S 29°16' E 047°57'1 0.6 1014.6 20.9
2017-Nov-15 21:30S 29°15' E 047°57'0 0.0 1015.8 20.9
2017-Nov-15 18:30S 29°15' E 047°57'0 0.0 1016.4 21.0
2017-Nov-15 17:30S 29°15' E 047°57'1 0.6 1016.1 21.0
2017-Nov-15 16:30S 29°14' E 047°57'0 0.0 1015.7 21.0
2017-Nov-15 15:30S 29°14' E 047°57'0 0.0 1015.2 21.0
2017-Nov-15 14:30S 29°14' E 047°57'1 0.6 1014.9 21.1
2017-Nov-15 13:30S 29°14' E 047°57'2 2.1 1014.8 21.1
2017-Nov-15 12:30S 29°12' E 047°58'0 0.0 1014.9 21.1
2017-Nov-15 11:30S 29°12' E 047°58'0 0.0 1015.5 21.1
2017-Nov-15 10:30S 29°12' E 047°58'1 0.1 1015.9 21.0
2017-Nov-15 05:30S 29°11' E 047°58'1 1.3 1017.6 20.8
2017-Nov-15 04:30S 29°10' E 047°59'1 0.6 1017.6 21.0
2017-Nov-15 03:30S 29°10' E 047°59'1 0.8 1017.4 21.0
2017-Nov-15 02:30S 29°09' E 047°59'0 0.0 1017.2 21.2
2017-Nov-15 01:30S 29°09' E 047°59'1 0.8 1016.7 21.3
2017-Nov-15 00:30S 29°08' E 048°00'0 0.0 1016.5 21.5
2017-Nov-14 23:30S 29°08' E 048°00'3 0.5 1016.3 21.6
2017-Nov-14 17:30S 29°05' E 048°01'1 0.7 1017.9 22.1
2017-Nov-14 15:30S 29°04' E 048°02'1 0.7 1017.3 22.2
2017-Nov-14 13:30S 29°03' E 048°01'2 1.7 1016.5 22.3
2017-Nov-14 12:30S 29°02' E 048°03'1 0.3 1016.4 22.3
2017-Nov-14 10:30S 29°02' E 048°03'4 1.0 1017.3 22.3
2017-Nov-14 06:30S 28°59' E 048°06'0 0.0 1019.2 22.2
2017-Nov-14 05:30S 28°59' E 048°06'1 0.6 1019.1 22.1
2017-Nov-14 04:30S 28°58' E 048°06'1 0.8 1019.1 22.1
2017-Nov-14 03:30S 28°58' E 048°07'1 0.5 1018.8 22.1
2017-Nov-14 02:30S 28°58' E 048°07'1 0.6 1018.3 22.1
2017-Nov-14 01:30S 28°57' E 048°07'2 1.1 1017.6 22.2
2017-Nov-13 23:30S 28°56' E 048°10'2 2.0 1017.9 22.2
2017-Nov-13 22:30S 28°55' E 048°11'0 0.0 1018.3 22.2
2017-Nov-13 18:30S 28°55' E 048°11'0 0.0 1019.9 22.4
2017-Nov-13 17:30S 28°55' E 048°11'1 0.5 1019.7 22.4
2017-Nov-13 16:30S 28°55' E 048°12'1 0.6 1019.6 22.4
2017-Nov-13 15:30S 28°55' E 048°12'1 1.2 1019.3 22.4
2017-Nov-13 14:30S 28°54' E 048°11'1 1.2 1018.8 22.4
2017-Nov-13 13:30S 28°53' E 048°12'1 0.5 1018.5 22.5
2017-Nov-13 12:30S 28°53' E 048°13'0 0.0 1018.4 22.5
2017-Nov-13 10:30S 28°53' E 048°13'5 1.1 1018.7 22.4
2017-Nov-13 05:30S 28°49' E 048°16'1 1.2 1019.6 22.3
2017-Nov-13 04:30S 28°48' E 048°17'0 0.0 1019.6 22.3
2017-Nov-13 03:30S 28°48' E 048°17'1 0.5 1019.2 22.3
2017-Nov-13 02:30S 28°48' E 048°17'1 0.5 1018.7 22.4
2017-Nov-13 01:30S 28°48' E 048°18'1 0.6 1018.1 22.4
2017-Nov-13 00:30S 28°47' E 048°18'1 0.8 1017.9 22.4
2017-Nov-12 23:30S 28°47' E 048°19'0 0.0 1018.0 22.4
2017-Nov-12 22:30S 28°47' E 048°19'3 0.7 1018.1 22.4
2017-Nov-12 18:30S 28°45' E 048°21'   1019.7 22.5

Dump ship's entire track history